Fernando Pessoa — CSKQ — position and weather

sailwx.info

Track history (hours):
 
Tides and Currents Weather Stations Pressure Air Temp Water Temp Dewpoint Dewpoint Depression Visibility Wind Speed Wind Dir Waves Ship Positions

Fernando Pessoa

Last reported at 2014-Nov-24 08:33 UTC. Time now 2014-Nov-24 09:34 UTC.
Position N 38°42' W 009°08'.

Length 49 m.

MMSI: 263701470.

Date/timePositionNaut miles runAvg speedWind from/ knotsBaromVisibWave heightAir tempDewpointWater temp
2014-Nov-24 08:33N 38°42' W 009°08'0 0.4
2014-Nov-24 07:34N 38°42' W 009°08'4 0.1
2014-Nov-22 16:12N 38°39' W 009°05'0 0.0
2014-Nov-21 21:24N 38°39' W 009°05'3 3.6
2014-Nov-21 20:33N 38°41' W 009°08'2 2.1
2014-Nov-21 19:34N 38°40' W 009°06'3 3.1
2014-Nov-21 18:34N 38°42' W 009°08'0 0.1
2014-Nov-21 17:34N 38°42' W 009°08'1 0.9
2014-Nov-21 16:33N 38°41' W 009°08'3 3.4
2014-Nov-21 15:33N 38°39' W 009°05'2 1.9
2014-Nov-21 14:33N 38°40' W 009°07'0 0.3
2014-Nov-21 13:34N 38°40' W 009°06'1 1.5
2014-Nov-21 12:33N 38°39' W 009°05'0 0.0
2014-Nov-21 11:34N 38°39' W 009°05'3 2.7
2014-Nov-21 10:34N 38°41' W 009°08'3 2.8
2014-Nov-21 09:33N 38°39' W 009°05'1 0.6
2014-Nov-21 08:34N 38°39' W 009°05'3 3.2
2014-Nov-21 07:34N 38°42' W 009°08'1 0.6
2014-Nov-21 06:34N 38°42' W 009°08'0 0.1
2014-Nov-21 05:34N 38°42' W 009°08'4 4.1
2014-Nov-21 04:34N 38°39' W 009°05'0 0.0
2014-Nov-21 03:33N 38°39' W 009°05'0 0.0
2014-Nov-21 02:34N 38°39' W 009°05'0 0.4
2014-Nov-21 01:34N 38°39' W 009°05'0 0.2
2014-Nov-21 00:33N 38°39' W 009°05'0 0.3
2014-Nov-20 23:33N 38°39' W 009°05'1 1.1
2014-Nov-20 22:34N 38°40' W 009°06'0 0.1
2014-Nov-20 21:34N 38°40' W 009°07'2 1.7
2014-Nov-20 20:33N 38°39' W 009°05'0 0.0
2014-Nov-20 19:33N 38°39' W 009°05'1 1.3
2014-Nov-20 18:34N 38°40' W 009°06'3 2.7
2014-Nov-20 17:33N 38°42' W 009°08'4 3.7
2014-Nov-20 16:33N 38°39' W 009°05'1 0.1
2014-Nov-20 09:33N 38°40' W 009°06'3 3.0
2014-Nov-20 08:33N 38°42' W 009°08'0 0.3
2014-Nov-20 07:34N 38°42' W 009°08'4 0.4
2014-Nov-19 21:20N 38°39' W 009°05'3 4.3
2014-Nov-19 20:34N 38°42' W 009°08'1 0.6
2014-Nov-19 19:33N 38°42' W 009°08'0 0.2
2014-Nov-19 18:34N 38°42' W 009°08'2 2.3
2014-Nov-19 17:34N 38°40' W 009°07'2 1.6
2014-Nov-19 16:34N 38°39' W 009°06'1 0.7
2014-Nov-19 15:34N 38°40' W 009°06'1 1.3
2014-Nov-19 14:33N 38°39' W 009°05'0 0.0
2014-Nov-19 13:33N 38°39' W 009°05'0 0.0
2014-Nov-19 12:33N 38°39' W 009°05'0 0.0
2014-Nov-19 11:33N 38°39' W 009°05'1 1.1
2014-Nov-19 10:34N 38°40' W 009°06'0 0.0
2014-Nov-19 09:33N 38°40' W 009°06'1 0.6
2014-Nov-19 08:33N 38°40' W 009°07'2 1.8
2014-Nov-19 07:33N 38°39' W 009°05'0 0.0
2014-Nov-19 06:34N 38°39' W 009°05'0 0.0
2014-Nov-19 00:10N 38°39' W 009°05'4 6.5
2014-Nov-18 23:34N 38°42' W 009°08'1 1.3
2014-Nov-18 22:33N 38°41' W 009°08'0 0.1
2014-Nov-18 21:34N 38°41' W 009°08'3 2.9
2014-Nov-18 20:33N 38°39' W 009°05'1 0.6
2014-Nov-18 19:34N 38°39' W 009°05'1 0.5
2014-Nov-18 18:34N 38°39' W 009°05'2 1.8
2014-Nov-18 17:34N 38°40' W 009°07'2 1.7
2014-Nov-18 16:33N 38°39' W 009°05'0 0.0
2014-Nov-18 15:34N 38°39' W 009°05'0 0.0
2014-Nov-18 14:34N 38°39' W 009°05'0 0.0
2014-Nov-18 13:34N 38°39' W 009°05'0 0.0
2014-Nov-18 12:33N 38°39' W 009°05'0 0.0
2014-Nov-18 11:34N 38°39' W 009°05'0 0.0
2014-Nov-18 10:33N 38°39' W 009°05'0 0.1
2014-Nov-18 09:34N 38°39' W 009°05'0 0.2
2014-Nov-18 08:33N 38°39' W 009°05'0 0.2
2014-Nov-18 07:33N 38°39' W 009°05'0 0.0
2014-Nov-18 06:34N 38°39' W 009°05'0 0.0
2014-Nov-17 22:17N 38°39' W 009°05'0 0.0
2014-Nov-17 21:33N 38°39' W 009°05'0 0.0
2014-Nov-17 20:33N 38°39' W 009°05'3 3.4
2014-Nov-17 19:33N 38°42' W 009°08'2 1.7
2014-Nov-17 18:33N 38°40' W 009°07'2 2.0
2014-Nov-17 17:33N 38°39' W 009°05'0 0.0
2014-Nov-17 16:34N 38°39' W 009°05'0 0.0
2014-Nov-17 15:33N 38°39' W 009°05'0 0.0
2014-Nov-17 13:34N 38°39' W 009°05'2 1.5
2014-Nov-17 12:33N 38°40' W 009°07'0 0.0
2014-Nov-17 11:34N 38°40' W 009°07'2 1.6
2014-Nov-17 10:33N 38°39' W 009°05'0 0.1
2014-Nov-17 09:33N 38°39' W 009°05'0 0.0
2014-Nov-17 08:34N 38°39' W 009°05'1 0.9
2014-Nov-17 07:33N 38°39' W 009°06'1 0.8
2014-Nov-17 06:33N 38°39' W 009°05'0 0.0
2014-Nov-17 05:33N 38°39' W 009°05'0 0.0
2014-Nov-17 04:33N 38°39' W 009°05'0 0.0
2014-Nov-17 03:33N 38°39' W 009°05'0 0.0
2014-Nov-17 02:33N 38°39' W 009°05'0 0.0
2014-Nov-17 01:33N 38°39' W 009°05'0 0.0
2014-Nov-17 00:33N 38°39' W 009°05'0 0.0
2014-Nov-16 23:33N 38°39' W 009°05'0 0.0
2014-Nov-16 22:33N 38°39' W 009°05'0 0.0
2014-Nov-16 21:33N 38°39' W 009°05'0 0.0
2014-Nov-16 20:33N 38°39' W 009°05'0 0.0
2014-Nov-16 19:33N 38°39' W 009°05'0 0.0
2014-Nov-16 18:33N 38°39' W 009°05'0 0.0
2014-Nov-16 17:33N 38°39' W 009°05'0 0.0
2014-Nov-16 16:33N 38°39' W 009°05'0 0.0
2014-Nov-16 15:33N 38°39' W 009°05'0 0.0
2014-Nov-16 14:33N 38°39' W 009°05'0 0.0
2014-Nov-16 13:33N 38°39' W 009°05'0 0.0
2014-Nov-16 12:33N 38°39' W 009°05'0 0.0
2014-Nov-16 11:33N 38°39' W 009°05'1 1.4
2014-Nov-16 10:33N 38°40' W 009°06'0 0.0
2014-Nov-16 09:34N 38°40' W 009°06'0 0.0
2014-Nov-16 08:34N 38°40' W 009°06'0 0.1
2014-Nov-16 07:34N 38°40' W 009°06'1 1.2
2014-Nov-16 06:33N 38°41' W 009°07'1 1.4
2014-Nov-16 05:33N 38°42' W 009°08'4 1.2
2014-Nov-16 02:25N 38°39' W 009°05'0 0.5
2014-Nov-16 01:34N 38°39' W 009°05'0 0.4
2014-Nov-16 00:33N 38°39' W 009°05'0 0.3
2014-Nov-15 23:34N 38°39' W 009°05'1 0.9
2014-Nov-15 22:33N 38°40' W 009°06'0 0.5
2014-Nov-15 21:33N 38°40' W 009°07'0 0.0
2014-Nov-15 20:33N 38°40' W 009°07'1 0.9
2014-Nov-15 19:33N 38°40' W 009°08'0 0.2
2014-Nov-15 18:33N 38°41' W 009°08'0 0.3
2014-Nov-15 17:33N 38°41' W 009°08'0 0.1
2014-Nov-15 16:33N 38°41' W 009°08'0 0.0
2014-Nov-15 15:33N 38°41' W 009°08'3 3.0
2014-Nov-15 14:33N 38°39' W 009°05'0 0.0
2014-Nov-15 13:34N 38°39' W 009°05'1 1.2
2014-Nov-15 12:34N 38°40' W 009°06'0 0.1
2014-Nov-15 11:34N 38°40' W 009°06'0 0.2
2014-Nov-15 10:34N 38°40' W 009°06'0 0.4
2014-Nov-15 09:34N 38°40' W 009°07'0 0.1
2014-Nov-15 08:33N 38°40' W 009°07'0 0.2
2014-Nov-15 07:34N 38°40' W 009°06'2 1.6
2014-Nov-15 06:34N 38°41' W 009°08'1 0.8
2014-Nov-15 05:33N 38°42' W 009°07'4 3.5
2014-Nov-15 04:33N 38°39' W 009°05'0 0.0
2014-Nov-15 03:33N 38°39' W 009°05'0 0.0
2014-Nov-15 02:33N 38°39' W 009°05'0 0.3
2014-Nov-15 01:34N 38°39' W 009°05'0 0.0
2014-Nov-15 00:34N 38°39' W 009°05'0 0.2
2014-Nov-14 23:33N 38°39' W 009°05'1 1.4
2014-Nov-14 22:33N 38°40' W 009°07'0 0.2
2014-Nov-14 21:33N 38°40' W 009°07'2 1.6
2014-Nov-14 20:34N 38°39' W 009°05'0 0.0
2014-Nov-14 19:33N 38°39' W 009°05'1 1.2
2014-Nov-14 18:34N 38°40' W 009°06'3 3.0
2014-Nov-14 17:34N 38°42' W 009°08'4 4.0
2014-Nov-14 16:33N 38°39' W 009°05'0 0.0
2014-Nov-14 11:08N 38°39' W 009°05'0 0.0
2014-Nov-14 10:34N 38°39' W 009°05'0 0.1
2014-Nov-14 09:33N 38°39' W 009°05'  
Track history (hours):
 
Tides and Currents Weather Stations Pressure Air Temp Water Temp Dewpoint Dewpoint Depression Visibility Wind Speed Wind Dir Waves Ship Positions

Fernando Pessoa

Last reported at 2014-Nov-24 08:33 UTC. Time now 2014-Nov-24 09:34 UTC.
Position N 38°42' W 009°08'.

Length 49 m.

MMSI: 263701470.

Date/timePositionNaut miles runAvg speedWind from/ knotsBaromVisibWave heightAir tempDewpointWater temp
2014-Nov-24 08:33N 38°42' W 009°08'0 0.4
2014-Nov-24 07:34N 38°42' W 009°08'4 0.1
2014-Nov-22 16:12N 38°39' W 009°05'0 0.0
2014-Nov-21 21:24N 38°39' W 009°05'3 3.6
2014-Nov-21 20:33N 38°41' W 009°08'2 2.1
2014-Nov-21 19:34N 38°40' W 009°06'3 3.1
2014-Nov-21 18:34N 38°42' W 009°08'0 0.1
2014-Nov-21 17:34N 38°42' W 009°08'1 0.9
2014-Nov-21 16:33N 38°41' W 009°08'3 3.4
2014-Nov-21 15:33N 38°39' W 009°05'2 1.9
2014-Nov-21 14:33N 38°40' W 009°07'0 0.3
2014-Nov-21 13:34N 38°40' W 009°06'1 1.5
2014-Nov-21 12:33N 38°39' W 009°05'0 0.0
2014-Nov-21 11:34N 38°39' W 009°05'3 2.7
2014-Nov-21 10:34N 38°41' W 009°08'3 2.8
2014-Nov-21 09:33N 38°39' W 009°05'1 0.6
2014-Nov-21 08:34N 38°39' W 009°05'3 3.2
2014-Nov-21 07:34N 38°42' W 009°08'1 0.6
2014-Nov-21 06:34N 38°42' W 009°08'0 0.1
2014-Nov-21 05:34N 38°42' W 009°08'4 4.1
2014-Nov-21 04:34N 38°39' W 009°05'0 0.0
2014-Nov-21 03:33N 38°39' W 009°05'0 0.0
2014-Nov-21 02:34N 38°39' W 009°05'0 0.4
2014-Nov-21 01:34N 38°39' W 009°05'0 0.2
2014-Nov-21 00:33N 38°39' W 009°05'0 0.3
2014-Nov-20 23:33N 38°39' W 009°05'1 1.1
2014-Nov-20 22:34N 38°40' W 009°06'0 0.1
2014-Nov-20 21:34N 38°40' W 009°07'2 1.7
2014-Nov-20 20:33N 38°39' W 009°05'0 0.0
2014-Nov-20 19:33N 38°39' W 009°05'1 1.3
2014-Nov-20 18:34N 38°40' W 009°06'3 2.7
2014-Nov-20 17:33N 38°42' W 009°08'4 3.7
2014-Nov-20 16:33N 38°39' W 009°05'1 0.1
2014-Nov-20 09:33N 38°40' W 009°06'3 3.0
2014-Nov-20 08:33N 38°42' W 009°08'0 0.3
2014-Nov-20 07:34N 38°42' W 009°08'4 0.4
2014-Nov-19 21:20N 38°39' W 009°05'3 4.3
2014-Nov-19 20:34N 38°42' W 009°08'1 0.6
2014-Nov-19 19:33N 38°42' W 009°08'0 0.2
2014-Nov-19 18:34N 38°42' W 009°08'2 2.3
2014-Nov-19 17:34N 38°40' W 009°07'2 1.6
2014-Nov-19 16:34N 38°39' W 009°06'1 0.7
2014-Nov-19 15:34N 38°40' W 009°06'1 1.3
2014-Nov-19 14:33N 38°39' W 009°05'0 0.0
2014-Nov-19 13:33N 38°39' W 009°05'0 0.0
2014-Nov-19 12:33N 38°39' W 009°05'0 0.0
2014-Nov-19 11:33N 38°39' W 009°05'1 1.1
2014-Nov-19 10:34N 38°40' W 009°06'0 0.0
2014-Nov-19 09:33N 38°40' W 009°06'1 0.6
2014-Nov-19 08:33N 38°40' W 009°07'2 1.8
2014-Nov-19 07:33N 38°39' W 009°05'0 0.0
2014-Nov-19 06:34N 38°39' W 009°05'0 0.0
2014-Nov-19 00:10N 38°39' W 009°05'4 6.5
2014-Nov-18 23:34N 38°42' W 009°08'1 1.3
2014-Nov-18 22:33N 38°41' W 009°08'0 0.1
2014-Nov-18 21:34N 38°41' W 009°08'3 2.9
2014-Nov-18 20:33N 38°39' W 009°05'1 0.6
2014-Nov-18 19:34N 38°39' W 009°05'1 0.5
2014-Nov-18 18:34N 38°39' W 009°05'2 1.8
2014-Nov-18 17:34N 38°40' W 009°07'2 1.7
2014-Nov-18 16:33N 38°39' W 009°05'0 0.0
2014-Nov-18 15:34N 38°39' W 009°05'0 0.0
2014-Nov-18 14:34N 38°39' W 009°05'0 0.0
2014-Nov-18 13:34N 38°39' W 009°05'0 0.0
2014-Nov-18 12:33N 38°39' W 009°05'0 0.0
2014-Nov-18 11:34N 38°39' W 009°05'0 0.0
2014-Nov-18 10:33N 38°39' W 009°05'0 0.1
2014-Nov-18 09:34N 38°39' W 009°05'0 0.2
2014-Nov-18 08:33N 38°39' W 009°05'0 0.2
2014-Nov-18 07:33N 38°39' W 009°05'0 0.0
2014-Nov-18 06:34N 38°39' W 009°05'0 0.0
2014-Nov-17 22:17N 38°39' W 009°05'0 0.0
2014-Nov-17 21:33N 38°39' W 009°05'0 0.0
2014-Nov-17 20:33N 38°39' W 009°05'3 3.4
2014-Nov-17 19:33N 38°42' W 009°08'2 1.7
2014-Nov-17 18:33N 38°40' W 009°07'2 2.0
2014-Nov-17 17:33N 38°39' W 009°05'0 0.0
2014-Nov-17 16:34N 38°39' W 009°05'0 0.0
2014-Nov-17 15:33N 38°39' W 009°05'0 0.0
2014-Nov-17 13:34N 38°39' W 009°05'2 1.5
2014-Nov-17 12:33N 38°40' W 009°07'0 0.0
2014-Nov-17 11:34N 38°40' W 009°07'2 1.6
2014-Nov-17 10:33N 38°39' W 009°05'0 0.1
2014-Nov-17 09:33N 38°39' W 009°05'0 0.0
2014-Nov-17 08:34N 38°39' W 009°05'1 0.9
2014-Nov-17 07:33N 38°39' W 009°06'1 0.8
2014-Nov-17 06:33N 38°39' W 009°05'0 0.0
2014-Nov-17 05:33N 38°39' W 009°05'0 0.0
2014-Nov-17 04:33N 38°39' W 009°05'0 0.0
2014-Nov-17 03:33N 38°39' W 009°05'0 0.0
2014-Nov-17 02:33N 38°39' W 009°05'0 0.0
2014-Nov-17 01:33N 38°39' W 009°05'0 0.0
2014-Nov-17 00:33N 38°39' W 009°05'0 0.0
2014-Nov-16 23:33N 38°39' W 009°05'0 0.0
2014-Nov-16 22:33N 38°39' W 009°05'0 0.0
2014-Nov-16 21:33N 38°39' W 009°05'0 0.0
2014-Nov-16 20:33N 38°39' W 009°05'0 0.0
2014-Nov-16 19:33N 38°39' W 009°05'0 0.0
2014-Nov-16 18:33N 38°39' W 009°05'0 0.0
2014-Nov-16 17:33N 38°39' W 009°05'0 0.0
2014-Nov-16 16:33N 38°39' W 009°05'0 0.0
2014-Nov-16 15:33N 38°39' W 009°05'0 0.0
2014-Nov-16 14:33N 38°39' W 009°05'0 0.0
2014-Nov-16 13:33N 38°39' W 009°05'0 0.0
2014-Nov-16 12:33N 38°39' W 009°05'0 0.0
2014-Nov-16 11:33N 38°39' W 009°05'1 1.4
2014-Nov-16 10:33N 38°40' W 009°06'0 0.0
2014-Nov-16 09:34N 38°40' W 009°06'0 0.0
2014-Nov-16 08:34N 38°40' W 009°06'0 0.1
2014-Nov-16 07:34N 38°40' W 009°06'1 1.2
2014-Nov-16 06:33N 38°41' W 009°07'1 1.4
2014-Nov-16 05:33N 38°42' W 009°08'4 1.2
2014-Nov-16 02:25N 38°39' W 009°05'0 0.5
2014-Nov-16 01:34N 38°39' W 009°05'0 0.4
2014-Nov-16 00:33N 38°39' W 009°05'0 0.3
2014-Nov-15 23:34N 38°39' W 009°05'1 0.9
2014-Nov-15 22:33N 38°40' W 009°06'0 0.5
2014-Nov-15 21:33N 38°40' W 009°07'0 0.0
2014-Nov-15 20:33N 38°40' W 009°07'1 0.9
2014-Nov-15 19:33N 38°40' W 009°08'0 0.2
2014-Nov-15 18:33N 38°41' W 009°08'0 0.3
2014-Nov-15 17:33N 38°41' W 009°08'0 0.1
2014-Nov-15 16:33N 38°41' W 009°08'0 0.0
2014-Nov-15 15:33N 38°41' W 009°08'3 3.0
2014-Nov-15 14:33N 38°39' W 009°05'0 0.0
2014-Nov-15 13:34N 38°39' W 009°05'1 1.2
2014-Nov-15 12:34N 38°40' W 009°06'0 0.1
2014-Nov-15 11:34N 38°40' W 009°06'0 0.2
2014-Nov-15 10:34N 38°40' W 009°06'0 0.4
2014-Nov-15 09:34N 38°40' W 009°07'0 0.1
2014-Nov-15 08:33N 38°40' W 009°07'0 0.2
2014-Nov-15 07:34N 38°40' W 009°06'2 1.6
2014-Nov-15 06:34N 38°41' W 009°08'1 0.8
2014-Nov-15 05:33N 38°42' W 009°07'4 3.5
2014-Nov-15 04:33N 38°39' W 009°05'0 0.0
2014-Nov-15 03:33N 38°39' W 009°05'0 0.0
2014-Nov-15 02:33N 38°39' W 009°05'0 0.3
2014-Nov-15 01:34N 38°39' W 009°05'0 0.0
2014-Nov-15 00:34N 38°39' W 009°05'0 0.2
2014-Nov-14 23:33N 38°39' W 009°05'1 1.4
2014-Nov-14 22:33N 38°40' W 009°07'0 0.2
2014-Nov-14 21:33N 38°40' W 009°07'2 1.6
2014-Nov-14 20:34N 38°39' W 009°05'0 0.0
2014-Nov-14 19:33N 38°39' W 009°05'1 1.2
2014-Nov-14 18:34N 38°40' W 009°06'3 3.0
2014-Nov-14 17:34N 38°42' W 009°08'4 4.0
2014-Nov-14 16:33N 38°39' W 009°05'0 0.0
2014-Nov-14 11:08N 38°39' W 009°05'0 0.0
2014-Nov-14 10:34N 38°39' W 009°05'0 0.1
2014-Nov-14 09:33N 38°39' W 009°05'  

Dump ship's entire track history